createdAt,value
2022-12-06T00:01:32.466Z,65.10
2022-12-06T00:04:04.219Z,65.08
2022-12-06T00:06:36.639Z,65.23
2022-12-06T00:09:05.236Z,65.20
2022-12-06T00:11:35.348Z,65.57
2022-12-06T00:14:06.328Z,65.66
2022-12-06T00:16:35.113Z,65.66
2022-12-06T00:19:04.036Z,65.78
2022-12-06T00:21:34.405Z,65.88
2022-12-06T00:24:05.794Z,65.95
2022-12-06T00:26:38.875Z,66.13
2022-12-06T00:29:08.122Z,66.20
2022-12-06T00:31:36.125Z,66.44
2022-12-06T00:34:04.843Z,66.42
2022-12-06T00:36:37.632Z,66.64
2022-12-06T00:39:08.234Z,66.81
2022-12-06T00:41:36.752Z,67.16
2022-12-06T00:44:05.494Z,67.58
2022-12-06T00:46:35.133Z,67.58
2022-12-06T00:49:05.250Z,67.47
2022-12-06T00:51:34.497Z,67.18
2022-12-06T00:54:02.925Z,66.90
2022-12-06T00:56:31.282Z,67.02
2022-12-06T00:58:59.093Z,67.00
2022-12-06T01:01:29.955Z,67.02
2022-12-06T01:03:59.281Z,67.14
2022-12-06T01:06:30.845Z,67.26
2022-12-06T01:09:01.856Z,67.30
2022-12-06T01:11:30.184Z,67.39
2022-12-06T01:13:58.486Z,67.54
2022-12-06T01:16:28.411Z,67.56
2022-12-06T01:18:59.756Z,67.67
2022-12-06T01:21:28.577Z,68.01
2022-12-06T01:23:57.776Z,68.16
2022-12-06T01:26:27.170Z,68.09
2022-12-06T01:28:55.581Z,68.09
2022-12-06T01:31:23.724Z,68.05
2022-12-06T01:33:51.705Z,68.01
2022-12-06T01:36:22.014Z,67.70
2022-12-06T01:38:52.217Z,67.65
2022-12-06T01:41:22.341Z,67.91
2022-12-06T01:43:51.047Z,68.13
2022-12-06T01:46:41.707Z,68.30
2022-12-06T01:49:14.521Z,68.16
2022-12-06T01:51:54.241Z,67.83
2022-12-06T01:54:25.352Z,67.64
2022-12-06T01:56:55.673Z,67.80
2022-12-06T01:59:25.389Z,68.02
2022-12-06T02:01:54.120Z,68.22
2022-12-06T02:04:23.513Z,68.24
2022-12-06T02:06:54.728Z,67.99
2022-12-06T02:09:23.100Z,67.95
2022-12-06T02:11:51.020Z,67.97
2022-12-06T02:14:24.432Z,68.04
2022-12-06T02:16:59.576Z,68.18
2022-12-06T02:19:43.211Z,68.17
2022-12-06T02:22:22.818Z,68.08
2022-12-06T02:25:00.066Z,67.93
2022-12-06T02:27:52.812Z,67.90
2022-12-06T02:30:47.566Z,67.84
2022-12-06T02:33:25.484Z,67.66
2022-12-06T02:36:22.561Z,67.57
2022-12-06T02:39:02.725Z,67.46
2022-12-06T02:41:38.861Z,67.34
2022-12-06T02:44:08.441Z,67.14
2022-12-06T02:46:39.497Z,67.05
2022-12-06T02:49:09.750Z,66.79
2022-12-06T02:51:38.965Z,66.67
2022-12-06T02:54:10.268Z,66.56
2022-12-06T02:56:38.409Z,66.76
2022-12-06T02:59:06.461Z,66.86
2022-12-06T03:01:41.157Z,66.91
2022-12-06T03:04:11.741Z,66.84
2022-12-06T03:07:04.369Z,66.85
2022-12-06T03:09:54.465Z,67.17
2022-12-06T03:12:22.385Z,67.10
2022-12-06T03:14:59.506Z,67.23
2022-12-06T03:17:41.089Z,67.13
2022-12-06T03:20:16.020Z,67.14
2022-12-06T03:22:50.581Z,67.19
2022-12-06T03:25:18.682Z,67.26
2022-12-06T03:27:48.995Z,67.53
2022-12-06T03:30:17.616Z,67.60
2022-12-06T03:32:49.677Z,67.59
2022-12-06T03:35:26.515Z,67.49
2022-12-06T03:37:59.142Z,67.50
2022-12-06T03:40:29.022Z,67.64
2022-12-06T03:42:58.006Z,67.73
2022-12-06T03:45:40.659Z,67.59
2022-12-06T03:48:33.970Z,67.78
2022-12-06T03:51:16.596Z,67.73
2022-12-06T03:53:50.168Z,67.69
2022-12-06T03:56:18.356Z,67.67
2022-12-06T03:58:46.744Z,67.66
2022-12-06T04:01:14.800Z,67.63
2022-12-06T04:03:42.940Z,67.90
2022-12-06T04:06:11.846Z,68.12
2022-12-06T04:08:39.916Z,68.25
2022-12-06T04:11:08.036Z,68.30
2022-12-06T04:13:36.082Z,68.32
2022-12-06T04:16:04.464Z,68.29
2022-12-06T04:18:32.478Z,68.16
2022-12-06T04:21:20.526Z,68.08
2022-12-06T04:23:50.793Z,68.21
2022-12-06T04:26:21.361Z,68.20
2022-12-06T04:29:10.223Z,68.17
2022-12-06T04:31:59.149Z,68.20
2022-12-06T04:34:45.752Z,68.15
2022-12-06T04:37:32.607Z,68.21
2022-12-06T04:40:01.145Z,67.99
2022-12-06T04:42:48.253Z,68.04
2022-12-06T04:45:16.417Z,67.96
2022-12-06T04:47:44.330Z,67.98
2022-12-06T04:50:12.230Z,68.20
2022-12-06T04:52:40.263Z,68.17
2022-12-06T04:55:08.598Z,68.38
2022-12-06T04:57:36.688Z,68.34
2022-12-06T05:00:05.506Z,68.33
2022-12-06T05:02:33.409Z,68.38
2022-12-06T05:05:01.363Z,68.31
2022-12-06T05:07:29.493Z,68.31
2022-12-06T05:09:57.418Z,68.36
2022-12-06T05:12:25.335Z,68.25
2022-12-06T05:14:53.201Z,68.05
2022-12-06T05:17:21.112Z,68.23
2022-12-06T05:19:49.015Z,68.54
2022-12-06T05:22:17.166Z,68.83
2022-12-06T05:24:45.432Z,69.14
2022-12-06T05:27:13.446Z,69.34
2022-12-06T05:29:42.461Z,69.72
2022-12-06T05:32:10.407Z,69.93
2022-12-06T05:34:38.296Z,69.94
2022-12-06T05:37:06.518Z,70.08
2022-12-06T05:39:34.395Z,70.24
2022-12-06T05:42:02.932Z,70.24
2022-12-06T05:44:30.859Z,69.96
2022-12-06T05:46:58.746Z,69.84
2022-12-06T05:49:27.748Z,69.87
2022-12-06T05:51:58.830Z,69.80
2022-12-06T05:54:30.727Z,69.82
2022-12-06T05:56:58.531Z,69.83
2022-12-06T05:59:26.570Z,69.71
2022-12-06T06:01:54.706Z,69.52
2022-12-06T06:04:22.903Z,69.42
2022-12-06T06:06:51.542Z,69.54
2022-12-06T06:09:19.637Z,69.32
2022-12-06T06:11:47.491Z,69.34
2022-12-06T06:14:15.445Z,69.40
2022-12-06T06:16:43.806Z,69.32
2022-12-06T06:19:12.450Z,69.30
2022-12-06T06:21:40.338Z,69.22
2022-12-06T06:24:08.586Z,69.10
2022-12-06T06:26:36.430Z,69.05
2022-12-06T06:29:04.270Z,69.04
2022-12-06T06:31:32.342Z,69.10
2022-12-06T06:34:00.405Z,69.23
2022-12-06T06:36:28.246Z,69.30
2022-12-06T06:38:56.243Z,69.43
2022-12-06T06:41:24.843Z,69.67
2022-12-06T06:43:52.753Z,69.50
2022-12-06T06:46:20.805Z,69.23
2022-12-06T06:48:48.821Z,69.40
2022-12-06T06:51:16.812Z,69.42
2022-12-06T06:53:44.705Z,69.51
2022-12-06T06:56:12.635Z,69.55
2022-12-06T06:58:40.675Z,69.51
2022-12-06T07:01:09.867Z,69.44
2022-12-06T07:03:37.706Z,69.49
2022-12-06T07:06:09.526Z,69.40
2022-12-06T07:08:39.656Z,69.36
2022-12-06T07:11:09.472Z,69.37
2022-12-06T07:13:38.902Z,69.63
2022-12-06T07:16:12.204Z,69.58
2022-12-06T07:18:40.308Z,69.40
2022-12-06T07:21:11.053Z,69.30
2022-12-06T07:23:38.904Z,69.24
2022-12-06T07:26:10.930Z,69.20
2022-12-06T07:28:41.984Z,69.00
2022-12-06T07:31:12.271Z,68.94
2022-12-06T07:33:41.358Z,69.00
2022-12-06T07:36:12.887Z,68.89
2022-12-06T07:38:49.622Z,68.98
2022-12-06T07:41:36.688Z,68.79
2022-12-06T07:44:32.025Z,68.77
2022-12-06T07:47:00.183Z,68.46
2022-12-06T07:49:28.889Z,68.24
2022-12-06T07:51:57.031Z,68.31
2022-12-06T07:54:25.762Z,68.27
2022-12-06T07:56:56.375Z,67.90
2022-12-06T07:59:25.529Z,67.58
2022-12-06T08:01:55.349Z,67.50
2022-12-06T08:04:23.716Z,67.37
2022-12-06T08:06:51.674Z,67.51
2022-12-06T08:09:19.867Z,67.70
2022-12-06T08:11:47.926Z,67.74
2022-12-06T08:14:15.934Z,67.67
2022-12-06T08:16:44.034Z,67.61
2022-12-06T08:19:11.953Z,67.70
2022-12-06T08:21:39.892Z,68.04
2022-12-06T08:24:07.892Z,68.22
2022-12-06T08:26:36.469Z,68.38
2022-12-06T08:29:04.318Z,68.34
2022-12-06T08:31:34.816Z,68.29
2022-12-06T08:34:04.453Z,68.27
2022-12-06T08:36:32.652Z,68.15
2022-12-06T08:39:01.417Z,68.42
2022-12-06T08:41:48.222Z,68.63
2022-12-06T08:44:17.201Z,68.79
2022-12-06T08:46:46.562Z,68.79
2022-12-06T08:49:17.077Z,68.80
2022-12-06T08:51:45.793Z,68.66
2022-12-06T08:54:17.317Z,68.30
2022-12-06T08:56:45.397Z,68.03
2022-12-06T08:59:13.546Z,68.10
2022-12-06T09:01:41.855Z,68.12
2022-12-06T09:04:11.641Z,68.22
2022-12-06T09:06:42.249Z,68.07
2022-12-06T09:09:10.972Z,67.94
2022-12-06T09:11:39.990Z,67.72
2022-12-06T09:14:09.358Z,67.68
2022-12-06T09:16:37.980Z,67.48
2022-12-06T09:19:05.947Z,67.32
2022-12-06T09:21:34.746Z,67.19
2022-12-06T09:24:02.791Z,67.14
2022-12-06T09:26:30.652Z,67.14
2022-12-06T09:28:59.215Z,67.04
2022-12-06T09:31:27.213Z,67.16
2022-12-06T09:33:55.214Z,67.28
2022-12-06T09:36:24.636Z,67.55
2022-12-06T09:39:00.447Z,67.67
2022-12-06T09:41:47.092Z,67.77
2022-12-06T09:44:33.922Z,67.71
2022-12-06T09:47:19.104Z,67.76
2022-12-06T09:50:02.558Z,67.56
2022-12-06T09:52:42.984Z,67.54
2022-12-06T09:55:29.484Z,67.40
2022-12-06T09:58:44.493Z,67.52
2022-12-06T10:01:34.415Z,67.70
2022-12-06T10:04:54.616Z,67.73
2022-12-06T10:07:39.148Z,67.75
2022-12-06T10:10:26.037Z,67.64
2022-12-06T10:13:00.351Z,67.94
2022-12-06T10:15:39.971Z,68.03
2022-12-06T10:18:07.828Z,68.07
2022-12-06T10:20:47.561Z,68.09
2022-12-06T10:23:21.918Z,68.21
2022-12-06T10:26:17.186Z,68.40
2022-12-06T10:28:57.588Z,68.18
2022-12-06T10:31:57.080Z,68.00
2022-12-06T10:34:57.651Z,68.00
2022-12-06T10:37:42.540Z,67.89
2022-12-06T10:40:10.488Z,67.86
2022-12-06T10:42:38.222Z,67.67
2022-12-06T10:45:33.905Z,67.50
2022-12-06T10:48:09.013Z,67.59
2022-12-06T10:50:39.224Z,67.65
2022-12-06T10:56:09.626Z,67.75
2022-12-06T10:58:42.605Z,67.83
2022-12-06T11:01:19.864Z,67.73
2022-12-06T11:04:00.310Z,67.81
2022-12-06T11:06:41.033Z,67.69
2022-12-06T11:09:18.953Z,67.40
2022-12-06T11:11:49.372Z,67.46
2022-12-06T11:14:29.581Z,67.36
2022-12-06T11:17:06.063Z,67.10
2022-12-06T11:19:45.803Z,66.98
2022-12-06T11:22:16.728Z,67.18
2022-12-06T11:24:53.810Z,67.09
2022-12-06T11:27:39.956Z,67.23
2022-12-06T11:30:20.741Z,67.50
2022-12-06T11:32:51.773Z,67.70
2022-12-06T11:35:25.112Z,67.99
2022-12-06T11:37:58.504Z,67.86
2022-12-06T11:40:33.280Z,68.00
2022-12-06T11:43:05.660Z,68.19
2022-12-06T11:45:37.511Z,68.33
2022-12-06T11:48:21.180Z,68.39
2022-12-06T11:50:51.122Z,68.34
2022-12-06T11:53:23.005Z,67.98
2022-12-06T11:55:54.585Z,68.22
2022-12-06T11:58:28.647Z,68.07
2022-12-06T12:00:58.260Z,68.14
2022-12-06T12:03:32.298Z,68.13
2022-12-06T12:06:09.673Z,68.21
2022-12-06T12:08:38.281Z,68.40
2022-12-06T12:11:06.979Z,68.33
2022-12-06T12:13:48.663Z,68.34
2022-12-06T12:16:28.402Z,68.47
2022-12-06T12:19:07.083Z,68.61
2022-12-06T12:21:41.166Z,68.51
2022-12-06T12:27:49.284Z,68.68
2022-12-06T12:30:20.561Z,68.61
2022-12-06T12:33:09.166Z,68.55
2022-12-06T12:35:39.268Z,68.46
2022-12-06T12:38:10.331Z,68.34
2022-12-06T12:40:48.897Z,68.15
2022-12-06T12:43:24.638Z,68.06
2022-12-06T12:46:09.933Z,68.17
2022-12-06T12:48:41.933Z,68.03
2022-12-06T12:51:30.985Z,67.94
2022-12-06T12:54:24.547Z,67.75
2022-12-06T12:56:54.767Z,67.74
2022-12-06T12:59:26.070Z,67.68
2022-12-06T13:02:27.139Z,67.98
2022-12-06T13:05:39.537Z,67.79
2022-12-06T13:08:25.110Z,67.68
2022-12-06T13:10:59.121Z,68.03
2022-12-06T13:13:42.903Z,67.94
2022-12-06T13:16:14.425Z,67.98
2022-12-06T13:18:47.739Z,68.03
2022-12-06T13:21:38.024Z,68.38
2022-12-06T13:24:12.735Z,68.63
2022-12-06T13:26:47.875Z,68.84
2022-12-06T13:29:24.858Z,69.03
2022-12-06T13:31:56.259Z,69.23
2022-12-06T13:34:38.093Z,69.26
2022-12-06T13:37:28.358Z,69.43
2022-12-06T13:39:57.425Z,69.58
2022-12-06T13:42:34.639Z,69.34
2022-12-06T13:45:05.533Z,68.84
2022-12-06T13:47:33.405Z,68.49
2022-12-06T13:50:04.902Z,68.70
2022-12-06T13:52:42.116Z,68.72
2022-12-06T13:55:25.733Z,68.79
2022-12-06T13:58:00.017Z,69.07
2022-12-06T14:00:30.270Z,69.15
2022-12-06T14:03:05.275Z,69.03
2022-12-06T14:08:19.313Z,68.69
2022-12-06T14:10:47.981Z,68.68
2022-12-06T14:13:21.242Z,68.67
2022-12-06T14:15:51.406Z,68.85
2022-12-06T14:18:22.874Z,69.09
2022-12-06T14:20:53.566Z,69.29
2022-12-06T14:23:38.523Z,69.51
2022-12-06T14:26:22.052Z,69.50
2022-12-06T14:28:51.744Z,69.53
2022-12-06T14:31:28.461Z,69.34
2022-12-06T14:33:57.340Z,69.53
2022-12-06T14:36:28.395Z,69.34
2022-12-06T14:39:27.602Z,69.24
2022-12-06T14:42:17.216Z,69.35
2022-12-06T14:44:53.327Z,69.41
2022-12-06T14:47:24.305Z,69.48
2022-12-06T14:50:13.855Z,69.64
2022-12-06T14:53:05.304Z,69.66
2022-12-06T14:55:51.513Z,69.63
2022-12-06T14:58:23.881Z,69.74
2022-12-06T15:01:00.354Z,69.57
2022-12-06T15:03:32.695Z,69.75
2022-12-06T15:06:22.267Z,69.54
2022-12-06T15:09:02.940Z,69.78
2022-12-06T15:11:49.651Z,69.88
2022-12-06T15:14:48.693Z,69.84
2022-12-06T15:17:21.821Z,69.72
2022-12-06T15:19:53.727Z,69.70
2022-12-06T15:22:25.619Z,69.47
2022-12-06T15:25:00.046Z,69.14
2022-12-06T15:27:28.273Z,68.95
2022-12-06T15:29:56.361Z,68.85
2022-12-06T15:32:26.401Z,68.77
2022-12-06T15:34:58.123Z,68.73
2022-12-06T15:37:44.013Z,69.11
2022-12-06T15:40:14.548Z,68.76
2022-12-06T15:42:42.902Z,68.40
2022-12-06T15:45:15.223Z,68.13
2022-12-06T15:47:43.272Z,68.01
2022-12-06T15:50:15.542Z,67.98
2022-12-06T15:52:43.589Z,68.00
2022-12-06T15:55:18.323Z,68.20
2022-12-06T15:57:46.855Z,68.15
2022-12-06T16:00:15.126Z,68.30
2022-12-06T16:02:43.226Z,68.16
2022-12-06T16:05:16.561Z,68.23
2022-12-06T16:07:44.578Z,68.41
2022-12-06T16:10:15.583Z,68.42
2022-12-06T16:13:06.175Z,68.38
2022-12-06T16:15:34.205Z,68.52
2022-12-06T16:18:02.470Z,68.40
2022-12-06T16:20:33.414Z,68.23
2022-12-06T16:23:21.602Z,68.23
2022-12-06T16:25:49.673Z,68.17
2022-12-06T16:28:17.854Z,68.10
2022-12-06T16:30:45.675Z,67.92
2022-12-06T16:33:18.143Z,67.90
2022-12-06T16:35:47.393Z,67.91
2022-12-06T16:38:18.217Z,68.07
2022-12-06T16:40:47.141Z,68.26
2022-12-06T16:43:15.055Z,68.30
2022-12-06T16:45:45.304Z,68.58
2022-12-06T16:48:20.078Z,68.84
2022-12-06T16:50:48.321Z,68.64
2022-12-06T16:53:16.789Z,68.45
2022-12-06T16:55:45.028Z,68.27
2022-12-06T16:58:12.931Z,68.44
2022-12-06T17:00:41.116Z,68.41
2022-12-06T17:03:09.660Z,68.43
2022-12-06T17:05:37.907Z,68.45
2022-12-06T17:08:05.985Z,68.58
2022-12-06T17:10:34.043Z,68.66
2022-12-06T17:13:02.273Z,68.52
2022-12-06T17:15:30.154Z,68.27
2022-12-06T17:17:58.196Z,68.13
2022-12-06T17:20:26.197Z,68.28
2022-12-06T17:22:54.253Z,68.13
2022-12-06T17:25:22.369Z,68.25
2022-12-06T17:27:51.592Z,68.24
2022-12-06T17:30:20.112Z,68.08
2022-12-06T17:32:48.849Z,68.18
2022-12-06T17:35:16.992Z,68.08
2022-12-06T17:37:45.310Z,68.08
2022-12-06T17:40:13.854Z,68.08
2022-12-06T17:43:00.175Z,68.09
2022-12-06T17:45:28.501Z,68.20
2022-12-06T17:47:56.613Z,68.18
2022-12-06T17:50:24.576Z,68.15
2022-12-06T17:52:52.496Z,68.02
2022-12-06T17:55:20.625Z,68.09
2022-12-06T17:57:48.617Z,67.97
2022-12-06T18:00:16.896Z,67.98
2022-12-06T18:02:45.241Z,67.99
2022-12-06T18:05:13.468Z,67.95
2022-12-06T18:07:41.501Z,68.04
2022-12-06T18:10:11.137Z,67.99
2022-12-06T18:12:39.221Z,68.04
2022-12-06T18:15:27.758Z,68.14
2022-12-06T18:17:55.613Z,68.15
2022-12-06T18:20:23.535Z,68.11
2022-12-06T18:22:51.520Z,67.85
2022-12-06T18:25:19.745Z,68.01
2022-12-06T18:27:52.598Z,67.98
2022-12-06T18:30:24.371Z,68.11
2022-12-06T18:32:54.861Z,68.19
2022-12-06T18:35:23.946Z,68.21
2022-12-06T18:37:52.056Z,67.94
2022-12-06T18:40:19.899Z,68.03
2022-12-06T18:42:47.901Z,67.97
2022-12-06T18:45:16.007Z,67.90
2022-12-06T18:47:44.151Z,67.91
2022-12-06T18:50:12.120Z,68.06
2022-12-06T18:52:40.185Z,67.90
2022-12-06T18:55:08.593Z,68.01
2022-12-06T18:57:38.246Z,68.10
2022-12-06T19:00:07.210Z,67.99
2022-12-06T19:02:35.443Z,67.93
2022-12-06T19:05:04.510Z,67.88
2022-12-06T19:07:33.703Z,67.96
2022-12-06T19:10:02.485Z,68.14
2022-12-06T19:12:30.902Z,68.03
2022-12-06T19:14:59.005Z,68.05
2022-12-06T19:17:27.167Z,68.27
2022-12-06T19:19:55.396Z,67.98
2022-12-06T19:22:23.412Z,67.95
2022-12-06T19:24:51.669Z,67.88
2022-12-06T19:27:20.841Z,67.87
2022-12-06T19:29:49.282Z,67.96
2022-12-06T19:32:17.469Z,68.11
2022-12-06T19:34:45.769Z,68.19
2022-12-06T19:37:13.989Z,68.22
2022-12-06T19:39:42.060Z,68.29
2022-12-06T19:42:28.972Z,68.30
2022-12-06T19:44:57.208Z,68.10
2022-12-06T19:47:25.412Z,68.06
2022-12-06T19:49:53.580Z,68.10
2022-12-06T19:52:23.361Z,68.06
2022-12-06T19:54:55.720Z,67.90
2022-12-06T19:57:23.694Z,67.99
2022-12-06T19:59:54.861Z,68.07
2022-12-06T20:02:23.156Z,68.20
2022-12-06T20:04:51.609Z,68.24
2022-12-06T20:07:19.705Z,68.32
2022-12-06T20:09:47.693Z,68.34
2022-12-06T20:12:15.915Z,68.52
2022-12-06T20:14:46.716Z,68.61
2022-12-06T20:17:17.696Z,68.67
2022-12-06T20:19:46.593Z,68.80
2022-12-06T20:22:17.118Z,68.59
2022-12-06T20:24:45.812Z,68.65
2022-12-06T20:27:14.259Z,68.70
2022-12-06T20:29:42.534Z,68.53
2022-12-06T20:32:11.498Z,68.38
2022-12-06T20:34:39.705Z,68.38
2022-12-06T20:37:07.789Z,68.46
2022-12-06T20:39:36.436Z,68.68
2022-12-06T20:42:06.934Z,68.77
2022-12-06T20:44:35.904Z,69.01
2022-12-06T20:47:04.345Z,68.95
2022-12-06T20:49:32.845Z,68.98
2022-12-06T20:52:02.974Z,68.84
2022-12-06T20:54:31.149Z,68.89
2022-12-06T20:56:59.180Z,68.77
2022-12-06T20:59:27.535Z,69.04
2022-12-06T21:01:55.749Z,69.29
2022-12-06T21:04:23.575Z,69.37
2022-12-06T21:06:51.530Z,69.33
2022-12-06T21:09:19.684Z,69.25
2022-12-06T21:11:48.403Z,69.13
2022-12-06T21:14:17.185Z,69.10
2022-12-06T21:16:45.369Z,69.12
2022-12-06T21:19:16.995Z,68.90
2022-12-06T21:21:53.322Z,69.09
2022-12-06T21:24:22.191Z,69.16
2022-12-06T21:26:50.422Z,69.57
2022-12-06T21:29:26.627Z,69.46
2022-12-06T21:31:56.413Z,69.52
2022-12-06T21:34:24.435Z,69.54
2022-12-06T21:36:52.355Z,69.70
2022-12-06T21:39:20.532Z,69.63
2022-12-06T21:41:48.642Z,69.62
2022-12-06T21:44:16.943Z,69.61
2022-12-06T21:46:45.302Z,69.62
2022-12-06T21:49:13.263Z,69.66
2022-12-06T21:51:41.109Z,69.62
2022-12-06T21:54:09.240Z,69.70
2022-12-06T21:56:38.468Z,69.83
2022-12-06T21:59:06.452Z,69.87
2022-12-06T22:01:34.396Z,69.87
2022-12-06T22:04:04.601Z,69.87
2022-12-06T22:06:34.644Z,69.76
2022-12-06T22:09:05.807Z,69.58
2022-12-06T22:11:34.770Z,69.61
2022-12-06T22:14:04.913Z,69.72
2022-12-06T22:16:32.941Z,69.89
2022-12-06T22:19:01.218Z,69.85
2022-12-06T22:21:31.429Z,70.03
2022-12-06T22:24:00.575Z,70.13
2022-12-06T22:26:31.079Z,70.21
2022-12-06T22:29:00.314Z,70.24
2022-12-06T22:31:31.578Z,70.53
2022-12-06T22:34:00.666Z,70.84
2022-12-06T22:36:29.394Z,70.89
2022-12-06T22:38:58.962Z,71.13
2022-12-06T22:41:28.011Z,71.25
2022-12-06T22:43:59.270Z,70.85
2022-12-06T22:46:28.845Z,70.45
2022-12-06T22:48:58.265Z,70.31
2022-12-06T22:51:29.391Z,70.14
2022-12-06T22:54:03.322Z,70.35
2022-12-06T22:56:33.758Z,70.49
2022-12-06T22:59:02.181Z,70.40
2022-12-06T23:01:32.802Z,70.22
2022-12-06T23:04:04.161Z,70.10
2022-12-06T23:06:33.130Z,69.85
2022-12-06T23:09:01.911Z,69.99
2022-12-06T23:11:35.283Z,70.10
2022-12-06T23:14:04.879Z,70.40
2022-12-06T23:16:33.469Z,70.21
2022-12-06T23:19:03.225Z,70.03
2022-12-06T23:21:34.117Z,69.68
2022-12-06T23:24:05.069Z,69.35
2022-12-06T23:26:36.066Z,69.06
2022-12-06T23:29:04.550Z,68.99
2022-12-06T23:31:35.893Z,69.03
2022-12-06T23:34:13.186Z,69.25
2022-12-06T23:36:42.261Z,69.47
2022-12-06T23:39:10.510Z,69.70
2022-12-06T23:41:39.070Z,69.74
2022-12-06T23:44:08.033Z,69.88
2022-12-06T23:46:38.234Z,69.87
2022-12-06T23:49:07.478Z,70.05
2022-12-06T23:51:38.224Z,70.03
2022-12-06T23:54:07.913Z,70.07
2022-12-06T23:56:38.760Z,70.45
2022-12-06T23:59:08.463Z,70.65
